sensor_id;sensor_type;location;lat;lon;timestamp;temperature;humidity
51559;DHT22;61650;48.882;2.092;2022-08-27T00:02:10;17.50;67.90
51559;DHT22;61650;48.882;2.092;2022-08-27T00:04:36;17.50;67.70
51559;DHT22;61650;48.882;2.092;2022-08-27T00:07:03;17.50;67.70
51559;DHT22;61650;48.882;2.092;2022-08-27T00:09:29;17.50;67.90
51559;DHT22;61650;48.882;2.092;2022-08-27T00:11:57;17.50;68.00
51559;DHT22;61650;48.882;2.092;2022-08-27T00:14:24;17.40;68.90
51559;DHT22;61650;48.882;2.092;2022-08-27T00:16:50;17.40;68.40
51559;DHT22;61650;48.882;2.092;2022-08-27T00:19:17;17.30;68.60
51559;DHT22;61650;48.882;2.092;2022-08-27T00:21:43;17.30;68.70
51559;DHT22;61650;48.882;2.092;2022-08-27T00:24:09;17.30;68.80
51559;DHT22;61650;48.882;2.092;2022-08-27T00:26:36;17.30;69.20
51559;DHT22;61650;48.882;2.092;2022-08-27T00:29:02;17.30;69.10
51559;DHT22;61650;48.882;2.092;2022-08-27T00:31:28;17.10;69.50
51559;DHT22;61650;48.882;2.092;2022-08-27T00:33:54;17.10;69.70
51559;DHT22;61650;48.882;2.092;2022-08-27T00:36:20;17.10;69.60
51559;DHT22;61650;48.882;2.092;2022-08-27T00:38:45;17.20;69.40
51559;DHT22;61650;48.882;2.092;2022-08-27T00:41:12;17.10;69.50
51559;DHT22;61650;48.882;2.092;2022-08-27T00:43:53;17.10;69.70
51559;DHT22;61650;48.882;2.092;2022-08-27T00:48:56;17.00;70.10
51559;DHT22;61650;48.882;2.092;2022-08-27T00:51:23;17.00;69.90
51559;DHT22;61650;48.882;2.092;2022-08-27T00:53:50;17.10;69.90
51559;DHT22;61650;48.882;2.092;2022-08-27T00:56:22;17.10;69.80
51559;DHT22;61650;48.882;2.092;2022-08-27T00:58:50;17.10;69.80
51559;DHT22;61650;48.882;2.092;2022-08-27T01:01:20;17.00;69.80
51559;DHT22;61650;48.882;2.092;2022-08-27T01:03:49;17.00;70.00
51559;DHT22;61650;48.882;2.092;2022-08-27T01:06:16;16.90;70.70
51559;DHT22;61650;48.882;2.092;2022-08-27T01:08:54;16.80;71.00
51559;DHT22;61650;48.882;2.092;2022-08-27T01:11:21;16.70;71.50
51559;DHT22;61650;48.882;2.092;2022-08-27T01:13:48;16.70;71.20
51559;DHT22;61650;48.882;2.092;2022-08-27T01:16:21;16.80;71.20
51559;DHT22;61650;48.882;2.092;2022-08-27T01:18:48;16.80;71.70
51559;DHT22;61650;48.882;2.092;2022-08-27T01:24:28;16.80;71.60
51559;DHT22;61650;48.882;2.092;2022-08-27T01:26:55;16.60;72.30
51559;DHT22;61650;48.882;2.092;2022-08-27T01:29:22;16.60;71.50
51559;DHT22;61650;48.882;2.092;2022-08-27T01:31:47;16.70;72.50
51559;DHT22;61650;48.882;2.092;2022-08-27T01:34:13;16.50;72.30
51559;DHT22;61650;48.882;2.092;2022-08-27T01:36:39;16.50;72.70
51559;DHT22;61650;48.882;2.092;2022-08-27T01:39:05;16.40;72.50
51559;DHT22;61650;48.882;2.092;2022-08-27T01:41:31;16.40;73.10
51559;DHT22;61650;48.882;2.092;2022-08-27T01:43:57;16.30;72.90
51559;DHT22;61650;48.882;2.092;2022-08-27T01:46:24;16.30;72.90
51559;DHT22;61650;48.882;2.092;2022-08-27T01:48:51;16.30;73.20
51559;DHT22;61650;48.882;2.092;2022-08-27T01:51:16;16.30;73.00
51559;DHT22;61650;48.882;2.092;2022-08-27T01:53:42;16.40;73.20
51559;DHT22;61650;48.882;2.092;2022-08-27T01:56:07;16.30;73.40
51559;DHT22;61650;48.882;2.092;2022-08-27T01:58:33;16.30;73.50
51559;DHT22;61650;48.882;2.092;2022-08-27T02:01:06;16.20;73.80
51559;DHT22;61650;48.882;2.092;2022-08-27T02:03:34;16.30;73.80
51559;DHT22;61650;48.882;2.092;2022-08-27T02:06:07;16.40;73.70
51559;DHT22;61650;48.882;2.092;2022-08-27T02:08:33;16.40;73.30
51559;DHT22;61650;48.882;2.092;2022-08-27T02:11:00;16.40;73.00
51559;DHT22;61650;48.882;2.092;2022-08-27T02:13:26;16.50;73.10
51559;DHT22;61650;48.882;2.092;2022-08-27T02:15:52;16.50;73.00
51559;DHT22;61650;48.882;2.092;2022-08-27T02:18:17;16.50;73.00
51559;DHT22;61650;48.882;2.092;2022-08-27T02:20:45;16.60;73.00
51559;DHT22;61650;48.882;2.092;2022-08-27T02:23:11;16.50;73.00
51559;DHT22;61650;48.882;2.092;2022-08-27T02:25:37;16.50;73.00
51559;DHT22;61650;48.882;2.092;2022-08-27T02:28:04;16.50;73.20
51559;DHT22;61650;48.882;2.092;2022-08-27T02:30:31;16.50;72.90
51559;DHT22;61650;48.882;2.092;2022-08-27T02:32:59;16.60;72.70
51559;DHT22;61650;48.882;2.092;2022-08-27T02:35:25;16.60;72.70
51559;DHT22;61650;48.882;2.092;2022-08-27T02:37:52;16.60;72.90
51559;DHT22;61650;48.882;2.092;2022-08-27T02:40:20;16.70;72.40
51559;DHT22;61650;48.882;2.092;2022-08-27T02:42:46;16.70;72.10
51559;DHT22;61650;48.882;2.092;2022-08-27T02:45:13;16.70;72.50
51559;DHT22;61650;48.882;2.092;2022-08-27T02:47:39;16.60;72.50
51559;DHT22;61650;48.882;2.092;2022-08-27T02:50:06;16.70;72.20
51559;DHT22;61650;48.882;2.092;2022-08-27T02:52:32;16.80;72.00
51559;DHT22;61650;48.882;2.092;2022-08-27T02:54:58;16.90;71.80
51559;DHT22;61650;48.882;2.092;2022-08-27T02:57:24;16.90;71.70
51559;DHT22;61650;48.882;2.092;2022-08-27T02:59:51;16.80;72.10
51559;DHT22;61650;48.882;2.092;2022-08-27T03:02:17;16.60;72.40
51559;DHT22;61650;48.882;2.092;2022-08-27T03:04:44;16.60;72.50
51559;DHT22;61650;48.882;2.092;2022-08-27T03:07:10;16.60;72.60
51559;DHT22;61650;48.882;2.092;2022-08-27T03:09:36;16.50;72.90
51559;DHT22;61650;48.882;2.092;2022-08-27T03:12:02;16.50;72.90
51559;DHT22;61650;48.882;2.092;2022-08-27T03:14:28;16.40;72.90
51559;DHT22;61650;48.882;2.092;2022-08-27T03:16:54;16.40;72.90
51559;DHT22;61650;48.882;2.092;2022-08-27T03:19:19;16.40;73.00
51559;DHT22;61650;48.882;2.092;2022-08-27T03:21:46;16.40;73.20
51559;DHT22;61650;48.882;2.092;2022-08-27T03:24:12;16.30;73.50
51559;DHT22;61650;48.882;2.092;2022-08-27T03:26:38;16.20;73.80
51559;DHT22;61650;48.882;2.092;2022-08-27T03:29:05;16.20;74.30
51559;DHT22;61650;48.882;2.092;2022-08-27T03:31:32;16.10;74.10
51559;DHT22;61650;48.882;2.092;2022-08-27T03:34:00;16.20;74.30
51559;DHT22;61650;48.882;2.092;2022-08-27T03:36:27;16.10;74.70
51559;DHT22;61650;48.882;2.092;2022-08-27T03:38:54;16.00;74.40
51559;DHT22;61650;48.882;2.092;2022-08-27T03:41:20;16.10;74.40
51559;DHT22;61650;48.882;2.092;2022-08-27T03:43:46;16.10;74.00
51559;DHT22;61650;48.882;2.092;2022-08-27T03:46:12;16.20;73.80
51559;DHT22;61650;48.882;2.092;2022-08-27T03:48:38;16.20;73.90
51559;DHT22;61650;48.882;2.092;2022-08-27T03:51:10;16.10;74.00
51559;DHT22;61650;48.882;2.092;2022-08-27T03:53:38;16.10;74.20
51559;DHT22;61650;48.882;2.092;2022-08-27T03:56:05;16.10;74.10
51559;DHT22;61650;48.882;2.092;2022-08-27T03:58:32;16.10;74.30
51559;DHT22;61650;48.882;2.092;2022-08-27T04:00:58;16.00;74.50
51559;DHT22;61650;48.882;2.092;2022-08-27T04:03:24;16.10;74.40
51559;DHT22;61650;48.882;2.092;2022-08-27T04:05:53;16.00;74.50
51559;DHT22;61650;48.882;2.092;2022-08-27T04:08:19;16.10;74.40
51559;DHT22;61650;48.882;2.092;2022-08-27T04:10:46;16.10;74.50
51559;DHT22;61650;48.882;2.092;2022-08-27T04:13:12;16.00;74.50
51559;DHT22;61650;48.882;2.092;2022-08-27T04:15:45;16.10;74.40
51559;DHT22;61650;48.882;2.092;2022-08-27T04:18:11;16.00;75.00
51559;DHT22;61650;48.882;2.092;2022-08-27T04:20:40;16.00;74.70
51559;DHT22;61650;48.882;2.092;2022-08-27T04:23:05;16.10;74.40
51559;DHT22;61650;48.882;2.092;2022-08-27T04:25:31;16.10;74.30
51559;DHT22;61650;48.882;2.092;2022-08-27T04:27:57;16.10;74.20
51559;DHT22;61650;48.882;2.092;2022-08-27T04:30:23;16.10;74.70
51559;DHT22;61650;48.882;2.092;2022-08-27T04:32:48;16.00;74.60
51559;DHT22;61650;48.882;2.092;2022-08-27T04:35:15;15.90;74.60
51559;DHT22;61650;48.882;2.092;2022-08-27T04:37:41;15.90;74.60
51559;DHT22;61650;48.882;2.092;2022-08-27T04:40:08;16.00;74.90
51559;DHT22;61650;48.882;2.092;2022-08-27T04:42:34;16.00;74.60
51559;DHT22;61650;48.882;2.092;2022-08-27T04:45:06;16.10;74.10
51559;DHT22;61650;48.882;2.092;2022-08-27T04:47:31;16.20;73.90
51559;DHT22;61650;48.882;2.092;2022-08-27T04:49:59;16.20;73.50
51559;DHT22;61650;48.882;2.092;2022-08-27T04:52:25;16.20;73.60
51559;DHT22;61650;48.882;2.092;2022-08-27T04:54:51;16.20;73.60
51559;DHT22;61650;48.882;2.092;2022-08-27T04:57:16;16.10;73.80
51559;DHT22;61650;48.882;2.092;2022-08-27T04:59:42;16.10;73.70
51559;DHT22;61650;48.882;2.092;2022-08-27T05:02:08;16.10;73.80
51559;DHT22;61650;48.882;2.092;2022-08-27T05:04:36;16.20;73.60
51559;DHT22;61650;48.882;2.092;2022-08-27T05:07:03;16.20;73.30
51559;DHT22;61650;48.882;2.092;2022-08-27T05:09:29;16.20;73.40
51559;DHT22;61650;48.882;2.092;2022-08-27T05:11:55;16.20;73.30
51559;DHT22;61650;48.882;2.092;2022-08-27T05:14:21;16.10;73.70
51559;DHT22;61650;48.882;2.092;2022-08-27T05:16:48;16.00;73.90
51559;DHT22;61650;48.882;2.092;2022-08-27T05:19:14;16.00;73.90
51559;DHT22;61650;48.882;2.092;2022-08-27T05:21:47;16.00;73.90
51559;DHT22;61650;48.882;2.092;2022-08-27T05:24:13;16.00;73.90
51559;DHT22;61650;48.882;2.092;2022-08-27T05:26:39;16.00;74.00
51559;DHT22;61650;48.882;2.092;2022-08-27T05:29:05;16.00;73.90
51559;DHT22;61650;48.882;2.092;2022-08-27T05:31:32;16.00;73.70
51559;DHT22;61650;48.882;2.092;2022-08-27T05:33:59;16.00;73.50
51559;DHT22;61650;48.882;2.092;2022-08-27T05:36:27;16.00;73.50
51559;DHT22;61650;48.882;2.092;2022-08-27T05:38:55;15.90;73.80
51559;DHT22;61650;48.882;2.092;2022-08-27T05:41:24;16.00;73.50
51559;DHT22;61650;48.882;2.092;2022-08-27T05:43:52;15.90;73.50
51559;DHT22;61650;48.882;2.092;2022-08-27T05:46:20;16.00;73.40
51559;DHT22;61650;48.882;2.092;2022-08-27T05:48:47;16.00;73.20
51559;DHT22;61650;48.882;2.092;2022-08-27T05:51:26;16.00;73.00
51559;DHT22;61650;48.882;2.092;2022-08-27T05:53:57;16.10;73.00
51559;DHT22;61650;48.882;2.092;2022-08-27T05:56:25;16.10;72.90
51559;DHT22;61650;48.882;2.092;2022-08-27T05:58:51;16.20;72.80
51559;DHT22;61650;48.882;2.092;2022-08-27T06:01:40;16.20;72.70
51559;DHT22;61650;48.882;2.092;2022-08-27T06:04:07;16.20;72.40
51559;DHT22;61650;48.882;2.092;2022-08-27T06:06:35;16.30;72.30
51559;DHT22;61650;48.882;2.092;2022-08-27T06:09:01;16.40;72.00
51559;DHT22;61650;48.882;2.092;2022-08-27T06:11:27;16.40;72.00
51559;DHT22;61650;48.882;2.092;2022-08-27T06:13:54;16.40;71.80
51559;DHT22;61650;48.882;2.092;2022-08-27T06:16:21;16.30;71.80
51559;DHT22;61650;48.882;2.092;2022-08-27T06:18:47;16.40;72.10
51559;DHT22;61650;48.882;2.092;2022-08-27T06:21:14;16.50;71.60
51559;DHT22;61650;48.882;2.092;2022-08-27T06:23:40;16.50;71.60
51559;DHT22;61650;48.882;2.092;2022-08-27T06:26:08;16.50;71.50
51559;DHT22;61650;48.882;2.092;2022-08-27T06:28:34;16.60;71.20
51559;DHT22;61650;48.882;2.092;2022-08-27T06:31:05;16.70;71.10
51559;DHT22;61650;48.882;2.092;2022-08-27T06:33:32;16.80;70.80
51559;DHT22;61650;48.882;2.092;2022-08-27T06:35:59;16.90;70.40
51559;DHT22;61650;48.882;2.092;2022-08-27T06:38:25;16.90;70.60
51559;DHT22;61650;48.882;2.092;2022-08-27T06:40:51;16.90;70.20
51559;DHT22;61650;48.882;2.092;2022-08-27T06:43:17;17.00;70.30
51559;DHT22;61650;48.882;2.092;2022-08-27T06:45:43;17.10;70.10
51559;DHT22;61650;48.882;2.092;2022-08-27T06:48:08;17.10;69.80
51559;DHT22;61650;48.882;2.092;2022-08-27T06:50:41;17.10;70.00
51559;DHT22;61650;48.882;2.092;2022-08-27T06:53:07;17.20;69.70
51559;DHT22;61650;48.882;2.092;2022-08-27T06:55:43;17.30;69.60
51559;DHT22;61650;48.882;2.092;2022-08-27T06:58:09;17.30;69.20
51559;DHT22;61650;48.882;2.092;2022-08-27T07:00:35;17.40;69.10
51559;DHT22;61650;48.882;2.092;2022-08-27T07:03:00;17.60;68.70
51559;DHT22;61650;48.882;2.092;2022-08-27T07:05:29;17.70;68.50
51559;DHT22;61650;48.882;2.092;2022-08-27T07:07:56;17.70;67.80
51559;DHT22;61650;48.882;2.092;2022-08-27T07:10:22;17.70;68.40
51559;DHT22;61650;48.882;2.092;2022-08-27T07:12:49;17.80;68.10
51559;DHT22;61650;48.882;2.092;2022-08-27T07:15:15;17.70;68.00
51559;DHT22;61650;48.882;2.092;2022-08-27T07:17:40;17.70;68.20
51559;DHT22;61650;48.882;2.092;2022-08-27T07:20:10;17.70;68.30
51559;DHT22;61650;48.882;2.092;2022-08-27T07:22:37;17.70;68.30
51559;DHT22;61650;48.882;2.092;2022-08-27T07:25:03;17.70;68.20
51559;DHT22;61650;48.882;2.092;2022-08-27T07:27:29;17.80;68.00
51559;DHT22;61650;48.882;2.092;2022-08-27T07:29:55;17.80;68.00
51559;DHT22;61650;48.882;2.092;2022-08-27T07:32:20;17.80;67.80
51559;DHT22;61650;48.882;2.092;2022-08-27T07:34:46;18.00;67.60
51559;DHT22;61650;48.882;2.092;2022-08-27T07:37:11;18.00;67.30
51559;DHT22;61650;48.882;2.092;2022-08-27T07:39:38;18.20;67.10
51559;DHT22;61650;48.882;2.092;2022-08-27T07:42:03;18.20;66.80
51559;DHT22;61650;48.882;2.092;2022-08-27T07:44:47;18.10;66.70
51559;DHT22;61650;48.882;2.092;2022-08-27T07:47:14;18.20;66.80
51559;DHT22;61650;48.882;2.092;2022-08-27T07:49:39;18.20;66.60
51559;DHT22;61650;48.882;2.092;2022-08-27T07:52:05;18.20;66.40
51559;DHT22;61650;48.882;2.092;2022-08-27T07:54:31;18.30;66.40
51559;DHT22;61650;48.882;2.092;2022-08-27T07:56:57;18.40;66.30
51559;DHT22;61650;48.882;2.092;2022-08-27T07:59:24;18.60;65.50
51559;DHT22;61650;48.882;2.092;2022-08-27T08:01:50;18.60;65.30
51559;DHT22;61650;48.882;2.092;2022-08-27T08:04:16;18.70;65.40
51559;DHT22;61650;48.882;2.092;2022-08-27T08:06:41;18.80;64.60
51559;DHT22;61650;48.882;2.092;2022-08-27T08:09:07;19.00;64.70
51559;DHT22;61650;48.882;2.092;2022-08-27T08:11:33;19.10;64.20
51559;DHT22;61650;48.882;2.092;2022-08-27T08:13:59;19.30;63.00
51559;DHT22;61650;48.882;2.092;2022-08-27T08:16:25;19.30;62.40
51559;DHT22;61650;48.882;2.092;2022-08-27T08:18:51;19.30;63.60
51559;DHT22;61650;48.882;2.092;2022-08-27T08:21:17;19.40;63.70
51559;DHT22;61650;48.882;2.092;2022-08-27T08:23:43;19.60;62.60
51559;DHT22;61650;48.882;2.092;2022-08-27T08:26:10;19.60;61.90
51559;DHT22;61650;48.882;2.092;2022-08-27T08:28:37;19.70;62.50
51559;DHT22;61650;48.882;2.092;2022-08-27T08:31:04;19.70;62.00
51559;DHT22;61650;48.882;2.092;2022-08-27T08:33:30;19.80;62.30
51559;DHT22;61650;48.882;2.092;2022-08-27T08:36:02;19.90;62.10
51559;DHT22;61650;48.882;2.092;2022-08-27T08:38:28;20.10;61.50
51559;DHT22;61650;48.882;2.092;2022-08-27T08:40:54;20.20;60.00
51559;DHT22;61650;48.882;2.092;2022-08-27T08:43:42;20.30;60.40
51559;DHT22;61650;48.882;2.092;2022-08-27T08:49:08;20.20;59.50
51559;DHT22;61650;48.882;2.092;2022-08-27T08:51:38;20.30;59.50
51559;DHT22;61650;48.882;2.092;2022-08-27T08:54:14;20.30;59.50
51559;DHT22;61650;48.882;2.092;2022-08-27T08:57:00;20.40;58.40
51559;DHT22;61650;48.882;2.092;2022-08-27T08:59:34;20.60;57.40
51559;DHT22;61650;48.882;2.092;2022-08-27T09:02:07;20.80;54.70
51559;DHT22;61650;48.882;2.092;2022-08-27T09:04:32;20.70;56.00
51559;DHT22;61650;48.882;2.092;2022-08-27T09:07:39;20.60;56.40
51559;DHT22;61650;48.882;2.092;2022-08-27T09:10:30;20.80;51.70
51559;DHT22;61650;48.882;2.092;2022-08-27T09:13:00;20.90;54.90
51559;DHT22;61650;48.882;2.092;2022-08-27T09:15:30;21.00;54.40
51559;DHT22;61650;48.882;2.092;2022-08-27T09:18:14;21.10;54.60
51559;DHT22;61650;48.882;2.092;2022-08-27T09:20:45;21.10;54.30
51559;DHT22;61650;48.882;2.092;2022-08-27T09:25:41;21.20;54.30
51559;DHT22;61650;48.882;2.092;2022-08-27T09:28:13;21.40;54.00
51559;DHT22;61650;48.882;2.092;2022-08-27T09:31:09;21.70;50.50
51559;DHT22;61650;48.882;2.092;2022-08-27T09:33:35;21.80;51.40
51559;DHT22;61650;48.882;2.092;2022-08-27T09:36:03;21.80;51.60
51559;DHT22;61650;48.882;2.092;2022-08-27T09:38:31;21.70;52.40
51559;DHT22;61650;48.882;2.092;2022-08-27T09:41:04;21.70;52.40
51559;DHT22;61650;48.882;2.092;2022-08-27T09:43:30;21.60;52.20
51559;DHT22;61650;48.882;2.092;2022-08-27T09:46:16;21.70;51.90
51559;DHT22;61650;48.882;2.092;2022-08-27T09:48:42;21.70;50.10
51559;DHT22;61650;48.882;2.092;2022-08-27T09:51:27;21.80;50.60
51559;DHT22;61650;48.882;2.092;2022-08-27T09:54:01;21.80;48.80
51559;DHT22;61650;48.882;2.092;2022-08-27T09:56:36;21.90;49.70
51559;DHT22;61650;48.882;2.092;2022-08-27T10:01:47;21.80;49.00
51559;DHT22;61650;48.882;2.092;2022-08-27T10:04:15;21.90;48.80
51559;DHT22;61650;48.882;2.092;2022-08-27T10:06:46;21.90;48.80
51559;DHT22;61650;48.882;2.092;2022-08-27T10:09:20;21.90;47.30
51559;DHT22;61650;48.882;2.092;2022-08-27T10:12:01;22.00;48.30
51559;DHT22;61650;48.882;2.092;2022-08-27T10:14:39;22.00;47.20
51559;DHT22;61650;48.882;2.092;2022-08-27T10:17:20;22.00;48.60
51559;DHT22;61650;48.882;2.092;2022-08-27T10:23:25;22.00;47.70
51559;DHT22;61650;48.882;2.092;2022-08-27T10:26:33;22.10;48.30
51559;DHT22;61650;48.882;2.092;2022-08-27T10:29:13;22.10;48.00
51559;DHT22;61650;48.882;2.092;2022-08-27T10:31:56;22.10;49.10
51559;DHT22;61650;48.882;2.092;2022-08-27T10:45:24;22.40;48.50
51559;DHT22;61650;48.882;2.092;2022-08-27T10:50:29;22.20;48.80
51559;DHT22;61650;48.882;2.092;2022-08-27T10:53:10;22.20;48.80
51559;DHT22;61650;48.882;2.092;2022-08-27T10:55:45;22.40;47.70
51559;DHT22;61650;48.882;2.092;2022-08-27T11:01:10;22.60;46.70
51559;DHT22;61650;48.882;2.092;2022-08-27T11:04:00;22.50;46.90
51559;DHT22;61650;48.882;2.092;2022-08-27T11:09:09;22.20;47.80
51559;DHT22;61650;48.882;2.092;2022-08-27T11:11:43;22.40;47.80
51559;DHT22;61650;48.882;2.092;2022-08-27T11:14:35;22.60;47.20
51559;DHT22;61650;48.882;2.092;2022-08-27T11:17:12;22.60;46.80
51559;DHT22;61650;48.882;2.092;2022-08-27T11:22:14;22.80;47.00
51559;DHT22;61650;48.882;2.092;2022-08-27T11:24:59;22.70;46.70
51559;DHT22;61650;48.882;2.092;2022-08-27T11:27:29;22.80;46.50
51559;DHT22;61650;48.882;2.092;2022-08-27T11:32:38;22.80;45.90
51559;DHT22;61650;48.882;2.092;2022-08-27T11:43:42;23.10;44.10
51559;DHT22;61650;48.882;2.092;2022-08-27T11:46:09;23.30;44.70
51559;DHT22;61650;48.882;2.092;2022-08-27T11:48:41;23.10;45.00
51559;DHT22;61650;48.882;2.092;2022-08-27T11:51:11;23.10;44.50
51559;DHT22;61650;48.882;2.092;2022-08-27T11:53:41;23.10;45.10
51559;DHT22;61650;48.882;2.092;2022-08-27T11:59:29;23.10;42.80
51559;DHT22;61650;48.882;2.092;2022-08-27T12:02:08;23.10;43.80
51559;DHT22;61650;48.882;2.092;2022-08-27T12:04:37;23.30;43.50
51559;DHT22;61650;48.882;2.092;2022-08-27T12:07:27;23.20;44.00
51559;DHT22;61650;48.882;2.092;2022-08-27T12:26:35;24.80;37.20
51559;DHT22;61650;48.882;2.092;2022-08-27T12:32:04;26.10;37.70
51559;DHT22;61650;48.882;2.092;2022-08-27T12:34:43;27.50;36.80
51559;DHT22;61650;48.882;2.092;2022-08-27T12:37:11;28.60;34.80
51559;DHT22;61650;48.882;2.092;2022-08-27T12:39:41;29.30;35.00
51559;DHT22;61650;48.882;2.092;2022-08-27T12:42:16;29.70;34.00
51559;DHT22;61650;48.882;2.092;2022-08-27T12:44:43;28.80;33.20
51559;DHT22;61650;48.882;2.092;2022-08-27T12:47:10;28.70;35.30
51559;DHT22;61650;48.882;2.092;2022-08-27T12:49:46;28.80;35.20
51559;DHT22;61650;48.882;2.092;2022-08-27T12:57:42;29.70;32.70
51559;DHT22;61650;48.882;2.092;2022-08-27T13:00:17;28.80;32.30
51559;DHT22;61650;48.882;2.092;2022-08-27T13:05:43;29.80;32.90
51559;DHT22;61650;48.882;2.092;2022-08-27T13:08:19;30.10;32.50
51559;DHT22;61650;48.882;2.092;2022-08-27T13:10:45;30.50;31.40
51559;DHT22;61650;48.882;2.092;2022-08-27T13:13:20;31.00;31.50
51559;DHT22;61650;48.882;2.092;2022-08-27T13:18:13;32.00;30.60
51559;DHT22;61650;48.882;2.092;2022-08-27T13:20:40;32.10;30.00
51559;DHT22;61650;48.882;2.092;2022-08-27T13:23:15;31.60;29.80
51559;DHT22;61650;48.882;2.092;2022-08-27T13:25:56;30.90;31.00
51559;DHT22;61650;48.882;2.092;2022-08-27T13:28:27;30.90;30.80
51559;DHT22;61650;48.882;2.092;2022-08-27T13:30:54;30.90;31.20
51559;DHT22;61650;48.882;2.092;2022-08-27T13:33:25;30.60;30.90
51559;DHT22;61650;48.882;2.092;2022-08-27T13:35:55;30.60;30.30
51559;DHT22;61650;48.882;2.092;2022-08-27T13:38:27;29.10;32.10
51559;DHT22;61650;48.882;2.092;2022-08-27T13:41:16;27.70;33.50
51559;DHT22;61650;48.882;2.092;2022-08-27T13:43:45;28.90;32.30
51559;DHT22;61650;48.882;2.092;2022-08-27T13:46:15;30.00;31.10
51559;DHT22;61650;48.882;2.092;2022-08-27T13:48:43;30.70;30.70
51559;DHT22;61650;48.882;2.092;2022-08-27T13:51:11;30.90;29.70
51559;DHT22;61650;48.882;2.092;2022-08-27T13:53:43;30.90;30.20
51559;DHT22;61650;48.882;2.092;2022-08-27T13:56:35;30.40;30.20
51559;DHT22;61650;48.882;2.092;2022-08-27T13:59:21;29.60;31.20
51559;DHT22;61650;48.882;2.092;2022-08-27T14:04:37;27.30;33.00
51559;DHT22;61650;48.882;2.092;2022-08-27T14:10:58;26.80;34.30
51559;DHT22;61650;48.882;2.092;2022-08-27T14:13:01;26.80;34.20
51559;DHT22;61650;48.882;2.092;2022-08-27T14:15:37;26.70;34.30
51559;DHT22;61650;48.882;2.092;2022-08-27T14:20:46;26.80;34.20
51559;DHT22;61650;48.882;2.092;2022-08-27T14:23:11;26.80;34.20
51559;DHT22;61650;48.882;2.092;2022-08-27T14:25:39;26.70;34.00
51559;DHT22;61650;48.882;2.092;2022-08-27T14:28:04;26.50;34.40
51559;DHT22;61650;48.882;2.092;2022-08-27T14:30:30;26.00;35.00
51559;DHT22;61650;48.882;2.092;2022-08-27T14:32:57;26.00;35.20
51559;DHT22;61650;48.882;2.092;2022-08-27T14:35:24;25.90;35.40
51559;DHT22;61650;48.882;2.092;2022-08-27T14:37:50;25.80;35.80
51559;DHT22;61650;48.882;2.092;2022-08-27T14:40:15;25.90;36.10
51559;DHT22;61650;48.882;2.092;2022-08-27T14:42:41;25.90;35.60
51559;DHT22;61650;48.882;2.092;2022-08-27T14:45:07;25.80;35.70
51559;DHT22;61650;48.882;2.092;2022-08-27T14:47:36;25.80;35.70
51559;DHT22;61650;48.882;2.092;2022-08-27T14:50:03;25.70;35.50
51559;DHT22;61650;48.882;2.092;2022-08-27T14:52:29;25.60;35.90
51559;DHT22;61650;48.882;2.092;2022-08-27T14:54:55;25.60;35.90
51559;DHT22;61650;48.882;2.092;2022-08-27T14:57:20;25.50;35.90
51559;DHT22;61650;48.882;2.092;2022-08-27T14:59:47;25.50;35.80
51559;DHT22;61650;48.882;2.092;2022-08-27T15:02:12;25.50;35.70
51559;DHT22;61650;48.882;2.092;2022-08-27T15:04:39;25.40;35.60
51559;DHT22;61650;48.882;2.092;2022-08-27T15:07:05;25.50;35.50
51559;DHT22;61650;48.882;2.092;2022-08-27T15:09:31;25.40;35.60
51559;DHT22;61650;48.882;2.092;2022-08-27T15:11:56;25.30;35.60
51559;DHT22;61650;48.882;2.092;2022-08-27T15:14:29;25.30;35.80
51559;DHT22;61650;48.882;2.092;2022-08-27T15:16:56;25.40;35.70
51559;DHT22;61650;48.882;2.092;2022-08-27T15:19:23;25.30;35.70
51559;DHT22;61650;48.882;2.092;2022-08-27T15:21:50;25.30;36.00
51559;DHT22;61650;48.882;2.092;2022-08-27T15:24:25;25.20;36.00
51559;DHT22;61650;48.882;2.092;2022-08-27T15:26:52;25.20;36.20
51559;DHT22;61650;48.882;2.092;2022-08-27T15:29:18;25.20;36.20
51559;DHT22;61650;48.882;2.092;2022-08-27T15:31:44;25.20;36.20
51559;DHT22;61650;48.882;2.092;2022-08-27T15:34:10;25.20;36.10
51559;DHT22;61650;48.882;2.092;2022-08-27T15:36:37;25.20;36.50
51559;DHT22;61650;48.882;2.092;2022-08-27T15:39:03;25.20;36.50
51559;DHT22;61650;48.882;2.092;2022-08-27T15:41:30;25.30;36.50
51559;DHT22;61650;48.882;2.092;2022-08-27T15:43:56;25.20;36.50
51559;DHT22;61650;48.882;2.092;2022-08-27T15:46:22;25.10;36.80
51559;DHT22;61650;48.882;2.092;2022-08-27T15:48:49;25.00;36.90
51559;DHT22;61650;48.882;2.092;2022-08-27T15:51:16;25.00;36.90
51559;DHT22;61650;48.882;2.092;2022-08-27T15:53:42;25.00;37.10
51559;DHT22;61650;48.882;2.092;2022-08-27T15:56:13;24.90;37.10
51559;DHT22;61650;48.882;2.092;2022-08-27T15:58:39;24.80;37.20
51559;DHT22;61650;48.882;2.092;2022-08-27T16:01:08;24.80;37.30
51559;DHT22;61650;48.882;2.092;2022-08-27T16:03:36;24.70;37.30
51559;DHT22;61650;48.882;2.092;2022-08-27T16:06:03;24.50;37.40
51559;DHT22;61650;48.882;2.092;2022-08-27T16:08:29;24.40;37.60
51559;DHT22;61650;48.882;2.092;2022-08-27T16:10:55;24.40;37.70
51559;DHT22;61650;48.882;2.092;2022-08-27T16:13:21;24.50;37.60
51559;DHT22;61650;48.882;2.092;2022-08-27T16:15:49;24.50;37.50
51559;DHT22;61650;48.882;2.092;2022-08-27T16:18:16;24.50;37.40
51559;DHT22;61650;48.882;2.092;2022-08-27T16:20:44;24.60;37.30
51559;DHT22;61650;48.882;2.092;2022-08-27T16:23:10;24.60;37.20
51559;DHT22;61650;48.882;2.092;2022-08-27T16:25:35;24.60;37.10
51559;DHT22;61650;48.882;2.092;2022-08-27T16:28:01;24.60;37.20
51559;DHT22;61650;48.882;2.092;2022-08-27T16:30:27;24.60;37.30
51559;DHT22;61650;48.882;2.092;2022-08-27T16:32:53;24.60;37.50
51559;DHT22;61650;48.882;2.092;2022-08-27T16:35:20;24.60;37.60
51559;DHT22;61650;48.882;2.092;2022-08-27T16:37:46;24.60;37.70
51559;DHT22;61650;48.882;2.092;2022-08-27T16:40:13;24.60;37.90
51559;DHT22;61650;48.882;2.092;2022-08-27T16:42:43;24.60;37.80
51559;DHT22;61650;48.882;2.092;2022-08-27T16:45:13;24.50;37.90
51559;DHT22;61650;48.882;2.092;2022-08-27T16:47:40;24.50;37.90
51559;DHT22;61650;48.882;2.092;2022-08-27T16:50:25;24.50;37.80
51559;DHT22;61650;48.882;2.092;2022-08-27T16:53:09;24.50;37.80
51559;DHT22;61650;48.882;2.092;2022-08-27T16:55:37;24.50;38.00
51559;DHT22;61650;48.882;2.092;2022-08-27T16:58:06;24.40;38.00
51559;DHT22;61650;48.882;2.092;2022-08-27T17:00:36;24.40;38.00
51559;DHT22;61650;48.882;2.092;2022-08-27T17:03:03;24.30;38.10
51559;DHT22;61650;48.882;2.092;2022-08-27T17:05:29;24.20;38.20
51559;DHT22;61650;48.882;2.092;2022-08-27T17:07:55;24.10;38.40
51559;DHT22;61650;48.882;2.092;2022-08-27T17:10:21;24.20;38.40
51559;DHT22;61650;48.882;2.092;2022-08-27T17:12:47;24.20;38.60
51559;DHT22;61650;48.882;2.092;2022-08-27T17:15:16;24.20;38.50